createdAt,value
2019-01-19T00:02:32.813Z,94.68
2019-01-19T00:05:34.199Z,94.22
2019-01-19T00:08:39.515Z,94.26
2019-01-19T00:11:54.861Z,94.42
2019-01-19T00:14:45.880Z,94.23
2019-01-19T00:17:59.583Z,94.12
2019-01-19T00:21:10.040Z,94.18
2019-01-19T00:24:12.363Z,93.88
2019-01-19T00:27:27.079Z,94.01
2019-01-19T00:30:54.259Z,94.54
2019-01-19T00:33:48.076Z,94.60
2019-01-19T00:36:43.462Z,94.16
2019-01-19T00:39:52.322Z,93.87
2019-01-19T00:42:53.442Z,93.81
2019-01-19T00:46:00.395Z,94.07
2019-01-19T00:49:09.009Z,94.18
2019-01-19T00:52:19.159Z,93.95
2019-01-19T00:55:34.722Z,93.60
2019-01-19T00:58:33.076Z,93.78
2019-01-19T01:01:38.983Z,93.98
2019-01-19T01:04:36.519Z,94.20
2019-01-19T01:16:04.921Z,94.20
2019-01-19T01:22:14.538Z,93.55
2019-01-19T01:34:32.248Z,93.78
2019-01-19T01:40:57.041Z,93.68
2019-01-19T01:43:50.004Z,93.72
2019-01-19T01:49:26.962Z,93.52
2019-01-19T01:52:08.374Z,93.38
2019-01-19T01:55:02.689Z,93.34
2019-01-19T01:58:10.920Z,93.48
2019-01-19T02:04:20.420Z,93.25
2019-01-19T02:07:29.056Z,93.21
2019-01-19T02:10:37.374Z,92.96
2019-01-19T02:13:45.588Z,92.96
2019-01-19T02:16:44.520Z,92.83
2019-01-19T02:19:52.808Z,92.52
2019-01-19T02:23:01.158Z,93.09
2019-01-19T02:26:09.372Z,93.13
2019-01-19T02:29:18.963Z,93.03
2019-01-19T02:32:27.284Z,93.39
2019-01-19T02:35:35.528Z,93.25
2019-01-19T02:38:44.062Z,93.38
2019-01-19T02:41:54.332Z,93.25
2019-01-19T02:45:05.947Z,93.58
2019-01-19T02:47:47.630Z,93.52
2019-01-19T02:50:29.391Z,93.65
2019-01-19T02:53:12.940Z,93.23
2019-01-19T02:55:54.794Z,92.58
2019-01-19T03:01:56.994Z,92.75
2019-01-19T03:05:05.634Z,92.77
2019-01-19T03:08:14.436Z,93.01
2019-01-19T03:11:22.738Z,92.61
2019-01-19T03:14:31.858Z,92.46
2019-01-19T03:17:34.437Z,92.82
2019-01-19T03:20:30.631Z,93.18
2019-01-19T03:23:27.373Z,93.13
2019-01-19T03:26:35.815Z,93.09
2019-01-19T03:29:50.614Z,93.12
2019-01-19T03:32:58.870Z,92.98
2019-01-19T03:36:07.695Z,93.16
2019-01-19T03:39:16.189Z,93.24
2019-01-19T03:41:58.370Z,93.40
2019-01-19T03:44:54.948Z,93.04
2019-01-19T03:48:03.772Z,92.90
2019-01-19T03:51:12.335Z,92.81
2019-01-19T03:54:20.696Z,92.85
2019-01-19T03:57:28.910Z,92.57
2019-01-19T04:00:31.419Z,92.97
2019-01-19T04:03:45.763Z,93.06
2019-01-19T04:06:57.999Z,93.17
2019-01-19T04:10:06.081Z,92.80
2019-01-19T04:13:14.616Z,92.73
2019-01-19T04:16:22.888Z,93.09
2019-01-19T04:19:19.343Z,92.73
2019-01-19T04:22:27.595Z,92.95
2019-01-19T04:25:19.247Z,92.52
2019-01-19T04:27:52.389Z,92.82
2019-01-19T04:30:31.883Z,92.19
2019-01-19T04:33:02.317Z,92.28
2019-01-19T04:35:32.718Z,92.22
2019-01-19T04:38:22.735Z,92.27
2019-01-19T04:40:53.197Z,92.43
2019-01-19T04:46:20.019Z,92.58
2019-01-19T04:49:11.747Z,92.44
2019-01-19T04:52:00.981Z,92.17
2019-01-19T04:54:50.345Z,92.20
2019-01-19T04:57:54.381Z,92.08
2019-01-19T05:00:32.362Z,91.93
2019-01-19T05:03:22.666Z,91.98
2019-01-19T05:05:53.066Z,91.59
2019-01-19T05:08:23.789Z,91.67
2019-01-19T05:11:13.547Z,91.51
2019-01-19T05:14:02.935Z,91.52
2019-01-19T05:16:52.486Z,92.05
2019-01-19T05:19:42.023Z,92.32
2019-01-19T05:22:31.338Z,92.45
2019-01-19T05:28:02.388Z,92.18
2019-01-19T05:30:52.751Z,92.25
2019-01-19T05:33:42.207Z,92.33
2019-01-19T05:36:12.977Z,92.69
2019-01-19T05:38:43.333Z,92.63
2019-01-19T05:41:13.753Z,92.53
2019-01-19T05:44:03.067Z,92.28
2019-01-19T05:46:33.842Z,92.30
2019-01-19T05:49:23.440Z,92.33
2019-01-19T05:51:53.850Z,92.06
2019-01-19T05:54:45.781Z,91.80
2019-01-19T05:57:16.443Z,91.46
2019-01-19T06:00:03.985Z,91.67
2019-01-19T06:04:59.780Z,91.89
2019-01-19T06:07:49.403Z,91.47
2019-01-19T06:10:19.898Z,91.55
2019-01-19T06:13:11.216Z,91.64
2019-01-19T06:15:41.533Z,91.45
2019-01-19T06:23:47.586Z,91.54
2019-01-19T06:26:20.303Z,91.90
2019-01-19T06:28:53.961Z,91.48
2019-01-19T06:31:24.615Z,91.51
2019-01-19T06:34:32.781Z,92.19
2019-01-19T06:37:22.302Z,91.75
2019-01-19T06:43:06.632Z,91.20
2019-01-19T06:45:59.296Z,91.06
2019-01-19T06:48:31.371Z,91.08
2019-01-19T06:51:01.794Z,91.17
2019-01-19T06:53:32.341Z,91.05
2019-01-19T06:56:21.745Z,90.70
2019-01-19T06:58:52.247Z,90.68
2019-01-19T07:01:22.579Z,90.89
2019-01-19T07:03:53.209Z,90.69
2019-01-19T07:06:25.912Z,90.65
2019-01-19T07:11:40.284Z,90.84
2019-01-19T07:14:30.357Z,90.68
2019-01-19T07:17:07.884Z,90.77
2019-01-19T07:19:57.233Z,90.74
2019-01-19T07:22:46.948Z,91.12
2019-01-19T07:25:17.271Z,90.89
2019-01-19T07:28:20.369Z,90.78
2019-01-19T07:30:58.960Z,90.55
2019-01-19T07:33:48.631Z,90.46
2019-01-19T07:36:38.114Z,90.69
2019-01-19T07:39:09.335Z,90.80
2019-01-19T07:41:50.765Z,90.36
2019-01-19T07:44:21.356Z,90.16
2019-01-19T07:46:56.110Z,90.18
2019-01-19T07:49:44.184Z,89.83
2019-01-19T07:52:15.367Z,90.23
2019-01-19T07:54:54.690Z,90.43
2019-01-19T07:57:44.036Z,90.47
2019-01-19T08:00:35.019Z,90.66
2019-01-19T08:03:06.783Z,90.85
2019-01-19T08:06:18.366Z,91.04
2019-01-19T08:09:08.742Z,90.81
2019-01-19T08:11:59.454Z,90.46
2019-01-19T08:14:30.036Z,90.26
2019-01-19T08:17:19.657Z,90.15
2019-01-19T08:22:19.382Z,90.43
2019-01-19T08:25:09.259Z,90.42
2019-01-19T08:28:01.800Z,90.54
2019-01-19T08:31:11.481Z,90.60
2019-01-19T08:33:44.236Z,90.76
2019-01-19T08:36:35.543Z,90.78
2019-01-19T08:39:25.424Z,90.78
2019-01-19T08:44:56.078Z,91.59
2019-01-19T08:47:26.430Z,92.20
2019-01-19T08:50:18.067Z,93.05
2019-01-19T08:53:07.801Z,93.01
2019-01-19T08:55:57.680Z,93.16
2019-01-19T08:58:28.840Z,92.91
2019-01-19T09:01:18.906Z,93.27
2019-01-19T09:03:56.532Z,93.91
2019-01-19T09:06:47.355Z,93.82
2019-01-19T09:09:17.648Z,93.77
2019-01-19T09:11:48.742Z,93.86
2019-01-19T09:14:19.309Z,94.00
2019-01-19T09:16:49.875Z,94.24
2019-01-19T09:19:41.114Z,92.59
2019-01-19T09:22:19.670Z,90.74
2019-01-19T09:25:12.348Z,90.26
2019-01-19T09:27:43.616Z,89.61
2019-01-19T09:30:28.930Z,88.96
2019-01-19T09:33:35.991Z,88.49
2019-01-19T09:39:35.316Z,86.25
2019-01-19T09:42:16.987Z,86.53
2019-01-19T09:44:58.637Z,85.96
2019-01-19T09:47:40.830Z,85.44
2019-01-19T09:50:13.015Z,84.48
2019-01-19T09:52:43.882Z,82.62
2019-01-19T09:55:34.350Z,83.13
2019-01-19T09:58:42.888Z,81.43
2019-01-19T10:01:32.306Z,81.73
2019-01-19T10:04:06.349Z,79.29
2019-01-19T10:06:55.616Z,79.00
2019-01-19T10:09:26.207Z,76.66
2019-01-19T10:11:56.681Z,77.14
2019-01-19T10:14:46.194Z,77.21
2019-01-19T10:17:35.810Z,76.59
2019-01-19T10:20:26.174Z,73.55
2019-01-19T10:23:08.223Z,72.94
2019-01-19T10:25:52.640Z,72.09
2019-01-19T10:28:23.513Z,71.28
2019-01-19T10:31:02.814Z,70.94
2019-01-19T10:33:55.650Z,72.35
2019-01-19T10:36:45.106Z,70.91
2019-01-19T10:45:38.371Z,72.38
2019-01-19T10:48:13.201Z,71.85
2019-01-19T10:50:43.548Z,71.76
2019-01-19T10:56:30.283Z,70.27
2019-01-19T10:59:02.273Z,71.95
2019-01-19T11:01:34.724Z,71.64
2019-01-19T11:04:25.557Z,71.87
2019-01-19T11:07:24.028Z,72.12
2019-01-19T11:09:54.683Z,71.72
2019-01-19T11:12:44.018Z,71.84
2019-01-19T11:15:15.359Z,70.92
2019-01-19T11:17:50.601Z,71.14
2019-01-19T11:20:42.707Z,71.33
2019-01-19T11:23:31.354Z,72.09
2019-01-19T11:26:04.889Z,71.57
2019-01-19T11:28:35.194Z,71.84
2019-01-19T11:31:05.792Z,72.44
2019-01-19T11:33:38.430Z,72.32
2019-01-19T11:36:08.751Z,71.58
2019-01-19T11:38:39.045Z,71.93
2019-01-19T11:41:09.568Z,72.47
2019-01-19T11:43:39.945Z,71.01
2019-01-19T11:46:10.735Z,71.12
2019-01-19T11:48:43.677Z,71.94
2019-01-19T11:51:36.231Z,71.46
2019-01-19T11:54:09.286Z,71.47
2019-01-19T12:00:21.309Z,72.79
2019-01-19T12:08:39.662Z,71.22
2019-01-19T12:11:29.062Z,72.70
2019-01-19T12:14:18.697Z,72.09
2019-01-19T12:16:58.113Z,72.35
2019-01-19T12:19:46.623Z,70.81
2019-01-19T12:22:07.158Z,71.47
2019-01-19T12:24:57.367Z,72.21
2019-01-19T12:27:29.427Z,72.60
2019-01-19T12:33:30.809Z,72.30
2019-01-19T12:36:01.781Z,73.16
2019-01-19T12:38:51.532Z,73.41
2019-01-19T12:41:35.824Z,74.27
2019-01-19T12:44:21.226Z,73.78
2019-01-19T12:46:57.122Z,72.77
2019-01-19T12:49:55.675Z,73.57
2019-01-19T12:52:48.805Z,72.09
2019-01-19T12:56:00.597Z,71.31
2019-01-19T12:59:00.001Z,71.31
2019-01-19T13:01:51.069Z,70.29
2019-01-19T13:04:46.111Z,70.74
2019-01-19T13:07:38.205Z,71.58
2019-01-19T13:13:21.113Z,71.10
2019-01-19T13:16:05.150Z,71.43
2019-01-19T13:18:59.210Z,71.22
2019-01-19T13:22:07.479Z,71.25
2019-01-19T13:28:22.796Z,71.71
2019-01-19T13:31:19.355Z,71.34
2019-01-19T13:34:28.085Z,70.52
2019-01-19T13:37:37.991Z,70.69
2019-01-19T13:49:55.669Z,70.28
2019-01-19T13:53:12.759Z,70.84
2019-01-19T13:59:40.308Z,71.49
2019-01-19T14:02:51.183Z,71.32
2019-01-19T14:05:58.737Z,71.57
2019-01-19T14:12:19.813Z,71.55
2019-01-19T14:17:44.412Z,71.10
2019-01-19T14:20:59.520Z,69.36
2019-01-19T14:23:54.583Z,68.86
2019-01-19T14:26:36.494Z,68.78
2019-01-19T14:29:46.101Z,69.54
2019-01-19T14:32:39.622Z,69.62
2019-01-19T14:35:40.734Z,70.08
2019-01-19T14:38:49.042Z,69.95
2019-01-19T14:41:33.967Z,69.80
2019-01-19T14:44:42.543Z,69.76
2019-01-19T14:48:00.592Z,70.09
2019-01-19T14:54:23.230Z,70.40
2019-01-19T14:57:45.014Z,69.95
2019-01-19T15:01:11.850Z,68.37
2019-01-19T15:04:14.020Z,68.03
2019-01-19T15:07:17.702Z,69.24
2019-01-19T15:10:38.105Z,69.40
2019-01-19T15:13:32.925Z,69.48
2019-01-19T15:16:49.254Z,68.90
2019-01-19T15:20:10.706Z,69.02
2019-01-19T15:23:19.065Z,69.19
2019-01-19T15:26:34.886Z,69.09
2019-01-19T15:29:43.628Z,69.41
2019-01-19T15:32:43.101Z,69.89
2019-01-19T15:35:51.894Z,70.41
2019-01-19T15:39:10.770Z,70.79
2019-01-19T15:42:01.342Z,72.24
2019-01-19T15:45:17.623Z,72.51
2019-01-19T15:48:14.001Z,72.78
2019-01-19T15:51:15.542Z,72.76
2019-01-19T15:54:21.569Z,72.23
2019-01-19T15:57:36.876Z,71.78
2019-01-19T16:00:42.556Z,72.47
2019-01-19T16:03:46.922Z,73.07
2019-01-19T16:06:50.212Z,74.53
2019-01-19T16:09:56.929Z,75.54
2019-01-19T16:13:06.402Z,76.38
2019-01-19T16:16:21.270Z,76.49
2019-01-19T16:19:18.400Z,75.14
2019-01-19T16:22:06.246Z,74.80
2019-01-19T16:25:19.589Z,76.04
2019-01-19T16:28:28.991Z,76.85
2019-01-19T16:32:16.363Z,77.38
2019-01-19T16:35:21.917Z,77.35
2019-01-19T16:38:32.143Z,77.62
2019-01-19T16:41:37.800Z,77.74
2019-01-19T16:44:56.104Z,77.82
2019-01-19T16:48:34.297Z,77.72
2019-01-19T16:51:33.202Z,78.49
2019-01-19T16:54:46.115Z,79.49
2019-01-19T16:58:06.529Z,80.91
2019-01-19T17:01:13.149Z,82.07
2019-01-19T17:04:06.095Z,82.33
2019-01-19T17:07:26.318Z,82.78
2019-01-19T17:10:25.131Z,81.71
2019-01-19T17:14:04.629Z,81.28
2019-01-19T17:17:27.770Z,81.11
2019-01-19T17:20:32.468Z,80.79
2019-01-19T17:23:31.336Z,80.79
2019-01-19T17:26:52.854Z,80.63
2019-01-19T17:30:09.054Z,81.39
2019-01-19T17:33:05.447Z,81.21
2019-01-19T17:36:31.749Z,81.48
2019-01-19T17:39:47.427Z,81.27
2019-01-19T17:43:07.920Z,81.90
2019-01-19T17:46:18.444Z,82.21
2019-01-19T17:49:16.799Z,82.41
2019-01-19T17:52:27.864Z,82.59
2019-01-19T17:55:35.109Z,82.89
2019-01-19T17:59:03.847Z,83.13
2019-01-19T18:02:21.514Z,83.56
2019-01-19T18:05:10.498Z,83.47
2019-01-19T18:08:53.035Z,84.01
2019-01-19T18:11:52.089Z,84.20
2019-01-19T18:15:21.090Z,83.97
2019-01-19T18:18:31.892Z,84.23
2019-01-19T18:21:25.017Z,84.84
2019-01-19T18:24:33.403Z,84.86
2019-01-19T18:28:01.986Z,85.06
2019-01-19T18:31:02.611Z,85.15
2019-01-19T18:33:54.093Z,85.27
2019-01-19T18:37:12.708Z,85.02
2019-01-19T18:40:42.130Z,85.11
2019-01-19T18:43:50.626Z,85.53
2019-01-19T18:46:42.613Z,85.88
2019-01-19T18:50:05.081Z,85.89
2019-01-19T18:52:56.572Z,86.19
2019-01-19T18:56:01.459Z,86.08
2019-01-19T18:59:04.999Z,86.36
2019-01-19T19:02:25.122Z,86.70
2019-01-19T19:05:30.155Z,86.76
2019-01-19T19:08:40.230Z,87.26
2019-01-19T19:11:54.992Z,87.55
2019-01-19T19:14:57.476Z,87.58
2019-01-19T19:18:09.823Z,87.05
2019-01-19T19:21:43.247Z,86.95
2019-01-19T19:24:45.492Z,87.39
2019-01-19T19:27:59.073Z,87.79
2019-01-19T19:30:54.755Z,87.92
2019-01-19T19:33:41.899Z,88.31
2019-01-19T19:36:53.392Z,88.86
2019-01-19T19:40:10.692Z,88.76
2019-01-19T19:43:16.410Z,88.76
2019-01-19T19:46:24.277Z,89.28
2019-01-19T19:49:25.155Z,89.50
2019-01-19T19:52:07.843Z,89.35
2019-01-19T19:54:44.951Z,89.29
2019-01-19T19:57:20.759Z,89.42
2019-01-19T19:59:56.845Z,89.58
2019-01-19T20:02:30.508Z,89.81
2019-01-19T20:05:07.517Z,89.89
2019-01-19T20:08:18.426Z,89.90
2019-01-19T20:10:31.907Z,89.85
2019-01-19T20:13:07.906Z,89.84
2019-01-19T20:15:42.471Z,89.83
2019-01-19T20:18:13.116Z,90.21
2019-01-19T20:21:07.912Z,89.97
2019-01-19T20:23:41.102Z,89.63
2019-01-19T20:26:23.825Z,89.70
2019-01-19T20:28:57.291Z,89.75
2019-01-19T20:31:36.249Z,89.54
2019-01-19T20:34:13.714Z,89.72
2019-01-19T20:36:45.327Z,89.84
2019-01-19T20:39:17.155Z,89.92
2019-01-19T20:41:49.227Z,89.91
2019-01-19T20:44:22.733Z,89.83
2019-01-19T20:46:58.678Z,89.59
2019-01-19T20:49:30.819Z,89.48
2019-01-19T20:52:11.760Z,89.50
2019-01-19T20:54:55.733Z,89.45
2019-01-19T20:57:31.547Z,89.45
2019-01-19T21:00:13.748Z,89.38
2019-01-19T21:02:55.587Z,89.29
2019-01-19T21:05:28.539Z,89.33
2019-01-19T21:08:03.328Z,89.55
2019-01-19T21:10:35.495Z,89.78
2019-01-19T21:13:06.192Z,89.98
2019-01-19T21:15:36.722Z,90.20
2019-01-19T21:18:07.134Z,90.18
2019-01-19T21:20:39.480Z,90.34
2019-01-19T21:23:12.237Z,90.30
2019-01-19T21:25:49.821Z,90.08
2019-01-19T21:28:25.374Z,90.45
2019-01-19T21:30:54.144Z,90.30
2019-01-19T21:33:24.623Z,89.96
2019-01-19T21:36:06.071Z,89.88
2019-01-19T21:38:40.724Z,90.16
2019-01-19T21:41:20.810Z,90.31
2019-01-19T21:43:58.827Z,90.25
2019-01-19T21:46:30.698Z,90.30
2019-01-19T21:49:04.201Z,90.52
2019-01-19T21:51:40.149Z,90.35
2019-01-19T21:54:09.530Z,90.40
2019-01-19T21:56:45.883Z,90.46
2019-01-19T21:59:17.556Z,90.48
2019-01-19T22:01:55.647Z,90.51
2019-01-19T22:04:34.521Z,90.55
2019-01-19T22:07:06.932Z,90.35
2019-01-19T22:09:42.709Z,90.17
2019-01-19T22:12:14.890Z,90.20
2019-01-19T22:14:54.194Z,90.26
2019-01-19T22:17:26.048Z,90.59
2019-01-19T22:20:00.157Z,90.96
2019-01-19T22:22:30.968Z,90.91
2019-01-19T22:25:06.134Z,90.58
2019-01-19T22:27:41.187Z,90.56
2019-01-19T22:33:05.104Z,90.59
2019-01-19T22:35:39.205Z,90.94
2019-01-19T22:38:29.847Z,90.97
2019-01-19T22:41:09.319Z,91.00
2019-01-19T22:43:42.203Z,91.03
2019-01-19T22:46:12.902Z,91.28
2019-01-19T22:48:51.103Z,91.31
2019-01-19T22:51:21.568Z,91.12
2019-01-19T22:53:52.436Z,90.72
2019-01-19T22:56:22.756Z,90.75
2019-01-19T22:58:53.514Z,90.73
2019-01-19T23:01:48.696Z,90.87
2019-01-19T23:04:22.849Z,91.02
2019-01-19T23:07:02.410Z,91.05
2019-01-19T23:09:35.127Z,91.14
2019-01-19T23:12:06.952Z,90.84
2019-01-19T23:14:40.125Z,90.71
2019-01-19T23:17:13.987Z,90.73
2019-01-19T23:19:51.865Z,90.94
2019-01-19T23:22:23.800Z,90.67
2019-01-19T23:24:57.436Z,90.53
2019-01-19T23:27:28.156Z,90.42
2019-01-19T23:30:02.543Z,90.33
2019-01-19T23:32:32.832Z,90.23
2019-01-19T23:35:12.744Z,90.37
2019-01-19T23:37:51.950Z,90.46
2019-01-19T23:40:22.257Z,90.40
2019-01-19T23:43:08.048Z,90.49
2019-01-19T23:45:38.734Z,90.34
2019-01-19T23:48:09.413Z,89.76
2019-01-19T23:50:45.471Z,89.85
2019-01-19T23:53:29.544Z,89.98
2019-01-19T23:55:59.983Z,89.90
2019-01-19T23:58:30.782Z,90.06
